sensor_id;sensor_type;location;lat;lon;timestamp;temperature;humidity
17697;DHT22;8967;47.984;7.842;2022-11-15T00:01:24;10.50;99.90
17697;DHT22;8967;47.984;7.842;2022-11-15T00:04:10;10.60;99.90
17697;DHT22;8967;47.984;7.842;2022-11-15T00:06:56;10.60;99.90
17697;DHT22;8967;47.984;7.842;2022-11-15T00:09:41;10.60;99.90
17697;DHT22;8967;47.984;7.842;2022-11-15T00:12:28;10.60;99.90
17697;DHT22;8967;47.984;7.842;2022-11-15T00:15:14;10.60;99.90
17697;DHT22;8967;47.984;7.842;2022-11-15T00:17:59;10.60;99.90
17697;DHT22;8967;47.984;7.842;2022-11-15T00:20:45;10.60;99.90
17697;DHT22;8967;47.984;7.842;2022-11-15T00:23:31;10.70;99.90
17697;DHT22;8967;47.984;7.842;2022-11-15T00:26:16;10.70;99.90
17697;DHT22;8967;47.984;7.842;2022-11-15T00:29:04;10.70;99.90
17697;DHT22;8967;47.984;7.842;2022-11-15T00:31:49;10.80;99.90
17697;DHT22;8967;47.984;7.842;2022-11-15T00:34:35;10.80;99.90
17697;DHT22;8967;47.984;7.842;2022-11-15T00:37:21;10.80;99.90
17697;DHT22;8967;47.984;7.842;2022-11-15T00:40:08;10.80;99.90
17697;DHT22;8967;47.984;7.842;2022-11-15T00:42:53;10.90;99.90
17697;DHT22;8967;47.984;7.842;2022-11-15T00:45:40;10.90;99.90
17697;DHT22;8967;47.984;7.842;2022-11-15T00:48:26;10.80;99.90
17697;DHT22;8967;47.984;7.842;2022-11-15T00:51:11;10.90;99.90
17697;DHT22;8967;47.984;7.842;2022-11-15T00:53:56;10.90;99.90
17697;DHT22;8967;47.984;7.842;2022-11-15T00:56:42;10.90;99.90
17697;DHT22;8967;47.984;7.842;2022-11-15T00:59:27;10.90;99.90
17697;DHT22;8967;47.984;7.842;2022-11-15T01:02:14;10.90;99.90
17697;DHT22;8967;47.984;7.842;2022-11-15T01:05:00;10.90;99.90
17697;DHT22;8967;47.984;7.842;2022-11-15T01:07:46;10.90;99.90
17697;DHT22;8967;47.984;7.842;2022-11-15T01:10:33;10.80;99.90
17697;DHT22;8967;47.984;7.842;2022-11-15T01:13:18;10.90;99.90
17697;DHT22;8967;47.984;7.842;2022-11-15T01:16:08;10.90;99.90
17697;DHT22;8967;47.984;7.842;2022-11-15T01:18:55;10.90;99.90
17697;DHT22;8967;47.984;7.842;2022-11-15T01:21:41;10.90;99.90
17697;DHT22;8967;47.984;7.842;2022-11-15T01:24:27;10.90;99.90
17697;DHT22;8967;47.984;7.842;2022-11-15T01:27:12;10.90;99.90
17697;DHT22;8967;47.984;7.842;2022-11-15T01:29:58;10.90;99.90
17697;DHT22;8967;47.984;7.842;2022-11-15T01:32:43;10.90;99.90
17697;DHT22;8967;47.984;7.842;2022-11-15T01:35:30;10.90;99.90
17697;DHT22;8967;47.984;7.842;2022-11-15T01:38:16;10.90;99.90
17697;DHT22;8967;47.984;7.842;2022-11-15T01:41:02;10.90;99.90
17697;DHT22;8967;47.984;7.842;2022-11-15T01:43:51;10.90;99.90
17697;DHT22;8967;47.984;7.842;2022-11-15T01:46:38;10.90;99.90
17697;DHT22;8967;47.984;7.842;2022-11-15T01:49:24;10.90;99.90
17697;DHT22;8967;47.984;7.842;2022-11-15T01:52:14;10.90;99.90
17697;DHT22;8967;47.984;7.842;2022-11-15T01:55:04;10.90;99.90
17697;DHT22;8967;47.984;7.842;2022-11-15T01:57:53;10.90;99.90
17697;DHT22;8967;47.984;7.842;2022-11-15T02:00:40;11.00;99.90
17697;DHT22;8967;47.984;7.842;2022-11-15T02:03:33;11.00;99.90
17697;DHT22;8967;47.984;7.842;2022-11-15T02:06:20;11.00;99.90
17697;DHT22;8967;47.984;7.842;2022-11-15T02:09:08;11.00;99.90
17697;DHT22;8967;47.984;7.842;2022-11-15T02:11:55;11.00;99.90
17697;DHT22;8967;47.984;7.842;2022-11-15T02:14:43;11.00;99.90
17697;DHT22;8967;47.984;7.842;2022-11-15T02:17:42;11.00;99.90
17697;DHT22;8967;47.984;7.842;2022-11-15T02:20:41;11.00;99.90
17697;DHT22;8967;47.984;7.842;2022-11-15T02:30:24;11.10;99.90
17697;DHT22;8967;47.984;7.842;2022-11-15T02:33:22;11.10;99.90
17697;DHT22;8967;47.984;7.842;2022-11-15T02:36:15;11.10;99.90
17697;DHT22;8967;47.984;7.842;2022-11-15T02:39:09;11.10;99.90
17697;DHT22;8967;47.984;7.842;2022-11-15T02:42:00;11.10;99.90
17697;DHT22;8967;47.984;7.842;2022-11-15T02:44:47;11.10;99.90
17697;DHT22;8967;47.984;7.842;2022-11-15T02:47:39;11.10;99.90
17697;DHT22;8967;47.984;7.842;2022-11-15T02:50:29;11.10;99.90
17697;DHT22;8967;47.984;7.842;2022-11-15T02:53:15;11.10;99.90
17697;DHT22;8967;47.984;7.842;2022-11-15T02:56:00;11.10;99.90
17697;DHT22;8967;47.984;7.842;2022-11-15T02:58:57;11.20;99.90
17697;DHT22;8967;47.984;7.842;2022-11-15T03:01:56;11.20;99.90
17697;DHT22;8967;47.984;7.842;2022-11-15T03:04:52;11.20;99.90
17697;DHT22;8967;47.984;7.842;2022-11-15T03:07:44;11.20;99.90
17697;DHT22;8967;47.984;7.842;2022-11-15T03:10:39;11.20;99.90
17697;DHT22;8967;47.984;7.842;2022-11-15T03:13:33;11.20;99.90
17697;DHT22;8967;47.984;7.842;2022-11-15T03:16:26;11.20;99.90
17697;DHT22;8967;47.984;7.842;2022-11-15T03:19:19;11.20;99.90
17697;DHT22;8967;47.984;7.842;2022-11-15T03:22:12;11.20;99.90
17697;DHT22;8967;47.984;7.842;2022-11-15T03:25:03;11.30;99.90
17697;DHT22;8967;47.984;7.842;2022-11-15T03:27:51;11.30;99.90
17697;DHT22;8967;47.984;7.842;2022-11-15T03:30:38;11.30;99.90
17697;DHT22;8967;47.984;7.842;2022-11-15T03:33:25;11.30;99.90
17697;DHT22;8967;47.984;7.842;2022-11-15T03:36:12;11.30;99.90
17697;DHT22;8967;47.984;7.842;2022-11-15T03:39:02;11.30;99.90
17697;DHT22;8967;47.984;7.842;2022-11-15T03:41:54;11.30;99.90
17697;DHT22;8967;47.984;7.842;2022-11-15T03:44:46;11.30;99.90
17697;DHT22;8967;47.984;7.842;2022-11-15T03:47:36;11.30;99.90
17697;DHT22;8967;47.984;7.842;2022-11-15T03:50:24;11.30;99.90
17697;DHT22;8967;47.984;7.842;2022-11-15T03:53:10;11.30;99.90
17697;DHT22;8967;47.984;7.842;2022-11-15T03:55:58;11.30;99.90
17697;DHT22;8967;47.984;7.842;2022-11-15T03:58:43;11.30;99.90
17697;DHT22;8967;47.984;7.842;2022-11-15T04:01:29;11.30;99.90
17697;DHT22;8967;47.984;7.842;2022-11-15T04:04:15;11.30;99.90
17697;DHT22;8967;47.984;7.842;2022-11-15T04:07:00;11.30;99.90
17697;DHT22;8967;47.984;7.842;2022-11-15T04:09:46;11.40;99.90
17697;DHT22;8967;47.984;7.842;2022-11-15T04:12:51;11.40;99.90
17697;DHT22;8967;47.984;7.842;2022-11-15T04:15:37;11.30;99.90
17697;DHT22;8967;47.984;7.842;2022-11-15T04:18:22;11.30;99.90
17697;DHT22;8967;47.984;7.842;2022-11-15T04:21:08;11.40;99.90
17697;DHT22;8967;47.984;7.842;2022-11-15T04:24:12;11.40;99.90
17697;DHT22;8967;47.984;7.842;2022-11-15T04:26:57;11.40;99.90
17697;DHT22;8967;47.984;7.842;2022-11-15T04:29:44;11.40;99.90
17697;DHT22;8967;47.984;7.842;2022-11-15T04:32:30;11.40;99.90
17697;DHT22;8967;47.984;7.842;2022-11-15T04:35:16;11.40;99.90
17697;DHT22;8967;47.984;7.842;2022-11-15T04:38:03;11.40;99.90
17697;DHT22;8967;47.984;7.842;2022-11-15T04:40:48;11.40;99.90
17697;DHT22;8967;47.984;7.842;2022-11-15T04:43:34;11.40;99.90
17697;DHT22;8967;47.984;7.842;2022-11-15T04:46:21;11.40;99.90
17697;DHT22;8967;47.984;7.842;2022-11-15T04:49:07;11.40;99.90
17697;DHT22;8967;47.984;7.842;2022-11-15T04:51:53;11.40;99.90
17697;DHT22;8967;47.984;7.842;2022-11-15T04:54:39;11.30;99.90
17697;DHT22;8967;47.984;7.842;2022-11-15T04:57:26;11.30;99.90
17697;DHT22;8967;47.984;7.842;2022-11-15T05:00:15;11.30;99.90
17697;DHT22;8967;47.984;7.842;2022-11-15T05:03:02;11.30;99.90
17697;DHT22;8967;47.984;7.842;2022-11-15T05:06:06;11.30;99.90
17697;DHT22;8967;47.984;7.842;2022-11-15T05:08:52;11.30;99.90
17697;DHT22;8967;47.984;7.842;2022-11-15T05:11:37;11.30;99.90
17697;DHT22;8967;47.984;7.842;2022-11-15T05:14:23;11.20;99.90
17697;DHT22;8967;47.984;7.842;2022-11-15T05:17:09;11.20;99.90
17697;DHT22;8967;47.984;7.842;2022-11-15T05:19:56;11.20;99.90
17697;DHT22;8967;47.984;7.842;2022-11-15T05:22:41;11.20;99.90
17697;DHT22;8967;47.984;7.842;2022-11-15T05:25:27;11.20;99.90
17697;DHT22;8967;47.984;7.842;2022-11-15T05:28:13;11.10;99.90
17697;DHT22;8967;47.984;7.842;2022-11-15T05:31:00;11.10;99.90
17697;DHT22;8967;47.984;7.842;2022-11-15T05:33:46;11.10;99.90
17697;DHT22;8967;47.984;7.842;2022-11-15T05:36:35;11.10;99.90
17697;DHT22;8967;47.984;7.842;2022-11-15T05:39:22;11.10;99.90
17697;DHT22;8967;47.984;7.842;2022-11-15T05:42:10;11.10;99.90
17697;DHT22;8967;47.984;7.842;2022-11-15T05:44:57;11.00;99.90
17697;DHT22;8967;47.984;7.842;2022-11-15T05:47:43;11.00;99.90
17697;DHT22;8967;47.984;7.842;2022-11-15T05:50:30;11.00;99.90
17697;DHT22;8967;47.984;7.842;2022-11-15T05:53:19;11.00;99.90
17697;DHT22;8967;47.984;7.842;2022-11-15T05:56:06;11.00;99.90
17697;DHT22;8967;47.984;7.842;2022-11-15T05:58:52;10.90;99.90
17697;DHT22;8967;47.984;7.842;2022-11-15T06:01:39;10.90;99.90
17697;DHT22;8967;47.984;7.842;2022-11-15T06:04:25;10.90;99.90
17697;DHT22;8967;47.984;7.842;2022-11-15T06:07:10;10.90;99.90
17697;DHT22;8967;47.984;7.842;2022-11-15T06:09:57;10.90;99.90
17697;DHT22;8967;47.984;7.842;2022-11-15T06:12:43;10.90;99.90
17697;DHT22;8967;47.984;7.842;2022-11-15T06:15:28;10.80;99.90
17697;DHT22;8967;47.984;7.842;2022-11-15T06:18:14;10.80;99.90
17697;DHT22;8967;47.984;7.842;2022-11-15T06:21:00;10.80;99.90
17697;DHT22;8967;47.984;7.842;2022-11-15T06:23:46;10.80;99.90
17697;DHT22;8967;47.984;7.842;2022-11-15T06:26:33;10.80;99.90
17697;DHT22;8967;47.984;7.842;2022-11-15T06:29:18;10.80;99.90
17697;DHT22;8967;47.984;7.842;2022-11-15T06:32:04;10.80;99.90
17697;DHT22;8967;47.984;7.842;2022-11-15T06:34:50;10.80;99.90
17697;DHT22;8967;47.984;7.842;2022-11-15T06:37:35;10.80;99.90
17697;DHT22;8967;47.984;7.842;2022-11-15T06:40:21;10.80;99.90
17697;DHT22;8967;47.984;7.842;2022-11-15T06:43:08;10.80;99.90
17697;DHT22;8967;47.984;7.842;2022-11-15T06:45:54;10.80;99.90
17697;DHT22;8967;47.984;7.842;2022-11-15T06:48:39;10.80;99.90
17697;DHT22;8967;47.984;7.842;2022-11-15T06:51:25;10.80;99.90
17697;DHT22;8967;47.984;7.842;2022-11-15T06:54:10;10.80;99.90
17697;DHT22;8967;47.984;7.842;2022-11-15T06:56:56;10.80;99.90
17697;DHT22;8967;47.984;7.842;2022-11-15T06:59:43;10.80;99.90
17697;DHT22;8967;47.984;7.842;2022-11-15T07:02:29;10.80;99.90
17697;DHT22;8967;47.984;7.842;2022-11-15T07:05:14;10.90;99.90
17697;DHT22;8967;47.984;7.842;2022-11-15T07:08:00;10.90;99.90
17697;DHT22;8967;47.984;7.842;2022-11-15T07:10:46;10.90;99.90
17697;DHT22;8967;47.984;7.842;2022-11-15T07:13:32;10.90;99.90
17697;DHT22;8967;47.984;7.842;2022-11-15T07:16:19;10.90;99.90
17697;DHT22;8967;47.984;7.842;2022-11-15T07:19:04;10.90;99.90
17697;DHT22;8967;47.984;7.842;2022-11-15T07:21:50;11.00;99.90
17697;DHT22;8967;47.984;7.842;2022-11-15T07:24:36;11.00;99.90
17697;DHT22;8967;47.984;7.842;2022-11-15T07:27:21;11.00;99.90
17697;DHT22;8967;47.984;7.842;2022-11-15T07:30:08;11.00;99.90
17697;DHT22;8967;47.984;7.842;2022-11-15T07:32:56;11.00;99.90
17697;DHT22;8967;47.984;7.842;2022-11-15T07:35:42;11.00;99.90
17697;DHT22;8967;47.984;7.842;2022-11-15T07:38:30;11.00;99.90
17697;DHT22;8967;47.984;7.842;2022-11-15T07:41:16;11.10;99.90
17697;DHT22;8967;47.984;7.842;2022-11-15T07:44:01;11.10;99.90
17697;DHT22;8967;47.984;7.842;2022-11-15T07:46:47;11.10;99.90
17697;DHT22;8967;47.984;7.842;2022-11-15T07:49:34;11.10;99.90
17697;DHT22;8967;47.984;7.842;2022-11-15T07:52:19;11.10;99.90
17697;DHT22;8967;47.984;7.842;2022-11-15T07:55:06;11.20;99.90
17697;DHT22;8967;47.984;7.842;2022-11-15T07:57:52;11.20;99.90
17697;DHT22;8967;47.984;7.842;2022-11-15T08:00:38;11.20;99.90
17697;DHT22;8967;47.984;7.842;2022-11-15T08:03:24;11.20;99.90
17697;DHT22;8967;47.984;7.842;2022-11-15T08:06:11;11.20;99.90
17697;DHT22;8967;47.984;7.842;2022-11-15T08:08:56;11.30;99.90
17697;DHT22;8967;47.984;7.842;2022-11-15T08:11:42;11.30;99.90
17697;DHT22;8967;47.984;7.842;2022-11-15T08:14:27;11.30;99.90
17697;DHT22;8967;47.984;7.842;2022-11-15T08:17:12;11.40;99.90
17697;DHT22;8967;47.984;7.842;2022-11-15T08:19:58;11.40;99.90
17697;DHT22;8967;47.984;7.842;2022-11-15T08:22:45;11.50;99.90
17697;DHT22;8967;47.984;7.842;2022-11-15T08:25:31;11.50;99.90
17697;DHT22;8967;47.984;7.842;2022-11-15T08:28:17;11.50;99.90
17697;DHT22;8967;47.984;7.842;2022-11-15T08:31:49;11.60;99.90
17697;DHT22;8967;47.984;7.842;2022-11-15T08:34:35;11.60;99.90
17697;DHT22;8967;47.984;7.842;2022-11-15T08:37:20;11.60;99.90
17697;DHT22;8967;47.984;7.842;2022-11-15T08:40:07;11.60;99.90
17697;DHT22;8967;47.984;7.842;2022-11-15T08:42:52;11.70;99.90
17697;DHT22;8967;47.984;7.842;2022-11-15T08:45:38;11.70;99.90
17697;DHT22;8967;47.984;7.842;2022-11-15T08:48:25;11.70;99.90
17697;DHT22;8967;47.984;7.842;2022-11-15T08:51:11;11.80;99.90
17697;DHT22;8967;47.984;7.842;2022-11-15T08:53:56;11.70;99.90
17697;DHT22;8967;47.984;7.842;2022-11-15T08:56:42;11.80;99.90
17697;DHT22;8967;47.984;7.842;2022-11-15T08:59:28;11.80;99.90
17697;DHT22;8967;47.984;7.842;2022-11-15T09:02:14;11.80;99.90
17697;DHT22;8967;47.984;7.842;2022-11-15T09:05:01;11.90;99.90
17697;DHT22;8967;47.984;7.842;2022-11-15T09:07:46;11.90;99.90
17697;DHT22;8967;47.984;7.842;2022-11-15T09:10:32;11.90;99.90
17697;DHT22;8967;47.984;7.842;2022-11-15T09:13:17;11.90;99.90
17697;DHT22;8967;47.984;7.842;2022-11-15T09:16:03;11.90;99.90
17697;DHT22;8967;47.984;7.842;2022-11-15T09:18:49;11.90;99.90
17697;DHT22;8967;47.984;7.842;2022-11-15T09:21:36;12.00;99.90
17697;DHT22;8967;47.984;7.842;2022-11-15T09:24:21;12.00;99.90
17697;DHT22;8967;47.984;7.842;2022-11-15T09:27:07;12.00;99.90
17697;DHT22;8967;47.984;7.842;2022-11-15T09:29:52;12.00;99.90
17697;DHT22;8967;47.984;7.842;2022-11-15T09:32:38;12.10;99.90
17697;DHT22;8967;47.984;7.842;2022-11-15T09:35:24;12.10;99.90
17697;DHT22;8967;47.984;7.842;2022-11-15T09:38:11;12.10;99.90
17697;DHT22;8967;47.984;7.842;2022-11-15T09:41:15;12.10;99.90
17697;DHT22;8967;47.984;7.842;2022-11-15T09:44:15;12.10;99.90
17697;DHT22;8967;47.984;7.842;2022-11-15T09:47:16;12.10;99.90
17697;DHT22;8967;47.984;7.842;2022-11-15T09:50:10;12.20;99.90
17697;DHT22;8967;47.984;7.842;2022-11-15T09:52:42;12.20;99.90
17697;DHT22;8967;47.984;7.842;2022-11-15T09:55:13;12.20;99.90
17697;DHT22;8967;47.984;7.842;2022-11-15T09:57:53;12.30;99.90
17697;DHT22;8967;47.984;7.842;2022-11-15T10:00:24;12.30;99.90
17697;DHT22;8967;47.984;7.842;2022-11-15T10:03:09;12.30;99.90
17697;DHT22;8967;47.984;7.842;2022-11-15T10:05:40;12.40;99.90
17697;DHT22;8967;47.984;7.842;2022-11-15T10:08:20;12.40;99.90
17697;DHT22;8967;47.984;7.842;2022-11-15T10:11:01;12.40;99.90
17697;DHT22;8967;47.984;7.842;2022-11-15T10:13:31;12.50;99.90
17697;DHT22;8967;47.984;7.842;2022-11-15T10:16:05;12.50;99.90
17697;DHT22;8967;47.984;7.842;2022-11-15T10:18:35;12.50;99.90
17697;DHT22;8967;47.984;7.842;2022-11-15T10:21:15;12.60;99.90
17697;DHT22;8967;47.984;7.842;2022-11-15T10:23:43;12.60;99.90
17697;DHT22;8967;47.984;7.842;2022-11-15T10:26:15;12.60;99.90
17697;DHT22;8967;47.984;7.842;2022-11-15T10:28:43;12.70;99.90
17697;DHT22;8967;47.984;7.842;2022-11-15T10:31:22;12.70;99.90
17697;DHT22;8967;47.984;7.842;2022-11-15T10:33:59;12.70;99.90
17697;DHT22;8967;47.984;7.842;2022-11-15T10:36:36;12.70;99.90
17697;DHT22;8967;47.984;7.842;2022-11-15T10:39:03;12.80;99.90
17697;DHT22;8967;47.984;7.842;2022-11-15T10:41:40;12.80;99.90
17697;DHT22;8967;47.984;7.842;2022-11-15T10:44:25;12.80;99.90
17697;DHT22;8967;47.984;7.842;2022-11-15T10:47:29;12.80;99.90
17697;DHT22;8967;47.984;7.842;2022-11-15T10:50:03;12.80;99.90
17697;DHT22;8967;47.984;7.842;2022-11-15T10:52:31;12.80;99.90
17697;DHT22;8967;47.984;7.842;2022-11-15T10:55:03;12.80;99.90
17697;DHT22;8967;47.984;7.842;2022-11-15T10:57:35;12.80;99.90
17697;DHT22;8967;47.984;7.842;2022-11-15T11:00:06;12.90;99.90
17697;DHT22;8967;47.984;7.842;2022-11-15T11:02:36;12.90;99.90
17697;DHT22;8967;47.984;7.842;2022-11-15T11:05:05;12.90;99.90
17697;DHT22;8967;47.984;7.842;2022-11-15T11:07:34;12.90;99.90
17697;DHT22;8967;47.984;7.842;2022-11-15T11:10:05;12.90;99.90
17697;DHT22;8967;47.984;7.842;2022-11-15T11:12:34;12.90;99.90
17697;DHT22;8967;47.984;7.842;2022-11-15T11:15:10;12.90;99.90
17697;DHT22;8967;47.984;7.842;2022-11-15T11:17:52;12.90;99.90
17697;DHT22;8967;47.984;7.842;2022-11-15T11:20:30;13.00;99.90
17697;DHT22;8967;47.984;7.842;2022-11-15T11:23:21;13.00;99.90
17697;DHT22;8967;47.984;7.842;2022-11-15T11:26:01;13.00;99.90
17697;DHT22;8967;47.984;7.842;2022-11-15T11:28:48;13.00;99.90
17697;DHT22;8967;47.984;7.842;2022-11-15T11:31:27;13.10;99.90
17697;DHT22;8967;47.984;7.842;2022-11-15T11:34:01;13.10;99.90
17697;DHT22;8967;47.984;7.842;2022-11-15T11:36:39;13.10;99.90
17697;DHT22;8967;47.984;7.842;2022-11-15T11:39:20;13.10;99.90
17697;DHT22;8967;47.984;7.842;2022-11-15T11:42:00;13.20;99.90
17697;DHT22;8967;47.984;7.842;2022-11-15T11:44:36;13.20;99.90
17697;DHT22;8967;47.984;7.842;2022-11-15T11:47:09;13.20;99.90
17697;DHT22;8967;47.984;7.842;2022-11-15T11:49:43;13.30;99.90
17697;DHT22;8967;47.984;7.842;2022-11-15T11:52:16;13.30;99.90
17697;DHT22;8967;47.984;7.842;2022-11-15T11:54:55;13.30;99.90
17697;DHT22;8967;47.984;7.842;2022-11-15T11:57:33;13.40;99.90
17697;DHT22;8967;47.984;7.842;2022-11-15T12:00:12;13.40;99.90
17697;DHT22;8967;47.984;7.842;2022-11-15T12:02:43;13.40;99.90
17697;DHT22;8967;47.984;7.842;2022-11-15T12:05:15;13.40;99.90
17697;DHT22;8967;47.984;7.842;2022-11-15T12:07:46;13.50;99.90
17697;DHT22;8967;47.984;7.842;2022-11-15T12:10:20;13.50;99.90
17697;DHT22;8967;47.984;7.842;2022-11-15T12:12:55;13.50;99.90
17697;DHT22;8967;47.984;7.842;2022-11-15T12:15:28;13.50;99.90
17697;DHT22;8967;47.984;7.842;2022-11-15T12:17:59;13.50;99.90
17697;DHT22;8967;47.984;7.842;2022-11-15T12:20:32;13.50;99.90
17697;DHT22;8967;47.984;7.842;2022-11-15T12:23:04;13.60;99.90
17697;DHT22;8967;47.984;7.842;2022-11-15T12:25:41;13.60;99.90
17697;DHT22;8967;47.984;7.842;2022-11-15T12:28:16;13.60;99.90
17697;DHT22;8967;47.984;7.842;2022-11-15T12:30:50;13.60;99.90
17697;DHT22;8967;47.984;7.842;2022-11-15T12:33:32;13.60;99.90
17697;DHT22;8967;47.984;7.842;2022-11-15T12:36:02;13.60;99.90
17697;DHT22;8967;47.984;7.842;2022-11-15T12:38:54;13.60;99.90
17697;DHT22;8967;47.984;7.842;2022-11-15T12:41:23;13.60;99.90
17697;DHT22;8967;47.984;7.842;2022-11-15T12:43:50;13.70;99.90
17697;DHT22;8967;47.984;7.842;2022-11-15T12:49:10;13.70;99.90
17697;DHT22;8967;47.984;7.842;2022-11-15T12:52:05;13.70;99.90
17697;DHT22;8967;47.984;7.842;2022-11-15T12:57:48;13.70;99.90
17697;DHT22;8967;47.984;7.842;2022-11-15T13:00:45;13.70;99.90
17697;DHT22;8967;47.984;7.842;2022-11-15T13:03:25;13.70;99.90
17697;DHT22;8967;47.984;7.842;2022-11-15T13:06:08;13.80;99.90
17697;DHT22;8967;47.984;7.842;2022-11-15T13:08:41;13.70;99.90
17697;DHT22;8967;47.984;7.842;2022-11-15T13:14:42;13.80;99.90
17697;DHT22;8967;47.984;7.842;2022-11-15T13:17:28;13.80;99.90
17697;DHT22;8967;47.984;7.842;2022-11-15T13:22:52;13.70;99.90
17697;DHT22;8967;47.984;7.842;2022-11-15T13:28:29;13.70;99.90
17697;DHT22;8967;47.984;7.842;2022-11-15T13:30:59;13.70;99.90
17697;DHT22;8967;47.984;7.842;2022-11-15T13:33:31;13.70;99.90
17697;DHT22;8967;47.984;7.842;2022-11-15T13:36:05;13.70;99.90
17697;DHT22;8967;47.984;7.842;2022-11-15T13:38:34;13.70;99.90
17697;DHT22;8967;47.984;7.842;2022-11-15T13:41:14;13.60;99.90
17697;DHT22;8967;47.984;7.842;2022-11-15T13:43:43;13.60;99.90
17697;DHT22;8967;47.984;7.842;2022-11-15T13:46:12;13.60;99.90
17697;DHT22;8967;47.984;7.842;2022-11-15T13:48:40;13.60;99.90
17697;DHT22;8967;47.984;7.842;2022-11-15T13:51:23;13.60;99.90
17697;DHT22;8967;47.984;7.842;2022-11-15T13:53:54;13.50;99.90
17697;DHT22;8967;47.984;7.842;2022-11-15T13:56:22;13.50;99.90
17697;DHT22;8967;47.984;7.842;2022-11-15T13:58:49;13.50;99.90
17697;DHT22;8967;47.984;7.842;2022-11-15T14:01:18;13.50;99.90
17697;DHT22;8967;47.984;7.842;2022-11-15T14:03:55;13.50;99.90
17697;DHT22;8967;47.984;7.842;2022-11-15T14:06:26;13.50;99.90
17697;DHT22;8967;47.984;7.842;2022-11-15T14:11:51;13.50;99.90
17697;DHT22;8967;47.984;7.842;2022-11-15T14:14:22;13.50;99.90
17697;DHT22;8967;47.984;7.842;2022-11-15T14:16:52;13.50;99.90
17697;DHT22;8967;47.984;7.842;2022-11-15T14:19:36;13.50;99.90
17697;DHT22;8967;47.984;7.842;2022-11-15T14:22:14;13.50;99.90
17697;DHT22;8967;47.984;7.842;2022-11-15T14:24:43;13.50;99.90
17697;DHT22;8967;47.984;7.842;2022-11-15T14:27:21;13.50;99.90
17697;DHT22;8967;47.984;7.842;2022-11-15T14:29:49;13.50;99.90
17697;DHT22;8967;47.984;7.842;2022-11-15T14:32:18;13.50;99.90
17697;DHT22;8967;47.984;7.842;2022-11-15T14:34:47;13.50;99.90
17697;DHT22;8967;47.984;7.842;2022-11-15T14:37:22;13.50;99.90
17697;DHT22;8967;47.984;7.842;2022-11-15T14:39:49;13.60;99.90
17697;DHT22;8967;47.984;7.842;2022-11-15T14:42:17;13.60;99.90
17697;DHT22;8967;47.984;7.842;2022-11-15T14:44:44;13.60;99.90
17697;DHT22;8967;47.984;7.842;2022-11-15T14:47:11;13.60;99.90
17697;DHT22;8967;47.984;7.842;2022-11-15T14:49:38;13.60;99.90
17697;DHT22;8967;47.984;7.842;2022-11-15T14:52:16;13.60;99.90
17697;DHT22;8967;47.984;7.842;2022-11-15T14:54:46;13.60;99.90
17697;DHT22;8967;47.984;7.842;2022-11-15T14:57:13;13.60;99.90
17697;DHT22;8967;47.984;7.842;2022-11-15T14:59:40;13.60;99.90
17697;DHT22;8967;47.984;7.842;2022-11-15T15:02:11;13.60;99.90
17697;DHT22;8967;47.984;7.842;2022-11-15T15:04:40;13.60;99.90
17697;DHT22;8967;47.984;7.842;2022-11-15T15:07:07;13.60;99.90
17697;DHT22;8967;47.984;7.842;2022-11-15T15:09:34;13.60;99.90
17697;DHT22;8967;47.984;7.842;2022-11-15T15:12:02;13.60;99.90
17697;DHT22;8967;47.984;7.842;2022-11-15T15:14:29;13.60;99.90
17697;DHT22;8967;47.984;7.842;2022-11-15T15:16:56;13.50;99.90
17697;DHT22;8967;47.984;7.842;2022-11-15T15:19:23;13.50;99.90
17697;DHT22;8967;47.984;7.842;2022-11-15T15:21:52;13.50;99.90
17697;DHT22;8967;47.984;7.842;2022-11-15T15:24:19;13.50;99.90
17697;DHT22;8967;47.984;7.842;2022-11-15T15:26:46;13.50;99.90
17697;DHT22;8967;47.984;7.842;2022-11-15T15:29:15;13.50;99.90
17697;DHT22;8967;47.984;7.842;2022-11-15T15:31:44;13.50;99.90
17697;DHT22;8967;47.984;7.842;2022-11-15T15:34:13;13.50;99.90
17697;DHT22;8967;47.984;7.842;2022-11-15T15:36:40;13.40;99.90
17697;DHT22;8967;47.984;7.842;2022-11-15T15:39:08;13.40;99.90
17697;DHT22;8967;47.984;7.842;2022-11-15T15:41:36;13.40;99.90
17697;DHT22;8967;47.984;7.842;2022-11-15T15:44:05;13.40;99.90
17697;DHT22;8967;47.984;7.842;2022-11-15T15:46:34;13.40;99.90
17697;DHT22;8967;47.984;7.842;2022-11-15T15:49:03;13.40;99.90
17697;DHT22;8967;47.984;7.842;2022-11-15T15:51:30;13.40;99.90
17697;DHT22;8967;47.984;7.842;2022-11-15T15:53:57;13.30;99.90
17697;DHT22;8967;47.984;7.842;2022-11-15T15:56:24;13.30;99.90
17697;DHT22;8967;47.984;7.842;2022-11-15T15:58:51;13.30;99.90
17697;DHT22;8967;47.984;7.842;2022-11-15T16:01:19;13.30;99.90
17697;DHT22;8967;47.984;7.842;2022-11-15T16:03:47;13.30;99.90
17697;DHT22;8967;47.984;7.842;2022-11-15T16:06:35;13.20;99.90
17697;DHT22;8967;47.984;7.842;2022-11-15T16:09:04;13.20;99.90
17697;DHT22;8967;47.984;7.842;2022-11-15T16:11:33;13.10;99.90
17697;DHT22;8967;47.984;7.842;2022-11-15T16:14:02;13.10;99.90
17697;DHT22;8967;47.984;7.842;2022-11-15T16:16:29;13.10;99.90
17697;DHT22;8967;47.984;7.842;2022-11-15T16:18:57;13.10;99.90
17697;DHT22;8967;47.984;7.842;2022-11-15T16:21:26;13.10;99.90
17697;DHT22;8967;47.984;7.842;2022-11-15T16:23:53;13.10;99.90
17697;DHT22;8967;47.984;7.842;2022-11-15T16:26:21;13.00;99.90
17697;DHT22;8967;47.984;7.842;2022-11-15T16:28:52;13.00;99.90
17697;DHT22;8967;47.984;7.842;2022-11-15T16:31:20;13.00;99.90
17697;DHT22;8967;47.984;7.842;2022-11-15T16:33:47;13.00;99.90
17697;DHT22;8967;47.984;7.842;2022-11-15T16:36:20;13.00;99.90
17697;DHT22;8967;47.984;7.842;2022-11-15T16:38:47;13.00;99.90
17697;DHT22;8967;47.984;7.842;2022-11-15T16:41:14;13.00;99.90
17697;DHT22;8967;47.984;7.842;2022-11-15T16:43:44;12.90;99.90
17697;DHT22;8967;47.984;7.842;2022-11-15T16:46:15;12.90;99.90
17697;DHT22;8967;47.984;7.842;2022-11-15T16:48:43;12.90;99.90
17697;DHT22;8967;47.984;7.842;2022-11-15T16:51:10;12.90;99.90
17697;DHT22;8967;47.984;7.842;2022-11-15T16:53:38;12.90;99.90
17697;DHT22;8967;47.984;7.842;2022-11-15T16:56:18;12.90;99.90
17697;DHT22;8967;47.984;7.842;2022-11-15T16:58:46;12.90;99.90
17697;DHT22;8967;47.984;7.842;2022-11-15T17:01:17;12.90;99.90
17697;DHT22;8967;47.984;7.842;2022-11-15T17:03:45;12.80;99.90
17697;DHT22;8967;47.984;7.842;2022-11-15T17:06:14;12.80;99.90
17697;DHT22;8967;47.984;7.842;2022-11-15T17:08:44;12.80;99.90
17697;DHT22;8967;47.984;7.842;2022-11-15T17:11:14;12.80;99.90
17697;DHT22;8967;47.984;7.842;2022-11-15T17:13:42;12.80;99.90
17697;DHT22;8967;47.984;7.842;2022-11-15T17:16:11;12.80;99.90
17697;DHT22;8967;47.984;7.842;2022-11-15T17:18:39;12.80;99.90
17697;DHT22;8967;47.984;7.842;2022-11-15T17:21:20;12.70;99.90
17697;DHT22;8967;47.984;7.842;2022-11-15T17:23:51;12.70;99.90
17697;DHT22;8967;47.984;7.842;2022-11-15T17:26:18;12.70;99.90
17697;DHT22;8967;47.984;7.842;2022-11-15T17:28:45;12.70;99.90
17697;DHT22;8967;47.984;7.842;2022-11-15T17:31:13;12.70;99.90
17697;DHT22;8967;47.984;7.842;2022-11-15T17:33:40;12.70;99.90
17697;DHT22;8967;47.984;7.842;2022-11-15T17:36:10;12.70;99.90